Ocean Shores, WA

8:09 PM PST on December 20, 2014 (GMT -0800)
Sanderson | Change Station
CLOSE
Current Station
Airport
Location: Shelton,
Elevation: 269 ft
Nearby Weather Stations
Active Advisory: Areal Flood Watch Active Notice: Record Report

Elev 269 ft 47.24 °N, 123.14 °W | Updated 16 minutes ago

Overcast
Overcast
55 °F
Feels Like 55 °F
N
18
Wind Variable Wind from SW
Gusts 29 mph

Today
High -- | Low -- °F
--% Chance of Precip.
Yesterday
High -- | Low -- °F
Precip. -- in
7:58 AM 4:29 PM
Waning Crescent, 1% visible
Pressure 29.47 in
Visibility 3.0 miles
Clouds Few 1100 ft
Scattered Clouds 1600 ft
Overcast 2400 ft
Dew Point 52 °F
Humidity 89%
Rainfall 1.96 in
Snow Depth Not available.
UV 0 out of 12
Pollen .50 out of 12
Air Quality Not available.
Flu Activity Not available.
METAR KSHN 210353Z AUTO 22016G25KT 3SM -RA BR FEW011 SCT016 OVC024 13/11 A2946 RMK AO2 PK WND 21028/0258 SLP978 P0013 T01280111

More Conditions Fewer Conditions

Pressure 29.47 in
Visibility 3.0 miles
Clouds Few 1100 ft
Scattered Clouds 1600 ft
Overcast 2400 ft
Dew Point 52 °F
Humidity 89%
Rainfall 1.96 in
Snow Depth Not available.
UV 0 out of 12
Pollen .50 out of 12
Air Quality Not available.
Flu Activity Not available.
METAR KSHN 210353Z AUTO 22016G25KT 3SM -RA BR FEW011 SCT016 OVC024 13/11 A2946 RMK AO2 PK WND 21028/0258 SLP978 P0013 T01280111

More Conditions Fewer Conditions

10-Day Weather Forecast

Almanac

Astronomy

Dec. 20, 2014 Rise Set
Actual Time
Civil Twilight
Nautical Twilight
Astronomical Twilight
Moon
Length of Visible Light
Length of Day
Tomorrow will be .
, % of the Moon is Illuminated

Today's Extremes

State Highs State Lows

Community

WunderPhotos

Upload Photos

1,779,357 photos uploaded!

WunderBlogs® & News

Nearby

Air Quality

  Air Quality AQ Index Pollutant
Not available.

Snow Depth

Station Depth Elevation

Earthquake Activity

City Distance Mag. Time & Date
Minimum magnitude displayed is 2.5.

Coastal Water Temperatures

Place Temperature

Nearby Weather Stations